createdAt,value
2022-08-05T00:02:21.819Z,6.10
2022-08-05T00:08:00.621Z,6.10
2022-08-05T00:12:56.812Z,6.00
2022-08-05T00:17:59.548Z,5.77
2022-08-05T00:23:13.010Z,5.97
2022-08-05T00:28:16.588Z,5.80
2022-08-05T00:34:55.585Z,5.73
2022-08-05T00:38:55.847Z,5.87
2022-08-05T00:44:02.528Z,5.60
2022-08-05T00:49:05.370Z,5.37
2022-08-05T00:54:14.993Z,5.17
2022-08-05T00:59:19.764Z,5.90
2022-08-05T01:04:26.643Z,5.33
2022-08-05T01:09:30.479Z,5.50
2022-08-05T01:14:48.753Z,5.70
2022-08-05T01:20:02.184Z,5.70
2022-08-05T01:25:40.907Z,5.67
2022-08-05T01:30:57.342Z,5.37
2022-08-05T01:36:03.491Z,5.80
2022-08-05T01:41:08.991Z,5.10
2022-08-05T01:46:16.462Z,5.40
2022-08-05T01:51:37.143Z,5.43
2022-08-05T01:58:09.773Z,5.00
2022-08-05T02:02:06.881Z,5.77
2022-08-05T02:07:21.698Z,5.70
2022-08-05T02:12:58.335Z,5.37
2022-08-05T02:18:32.728Z,5.80
2022-08-05T02:23:40.028Z,6.00
2022-08-05T02:28:45.896Z,5.47
2022-08-05T02:34:09.945Z,6.13
2022-08-05T02:39:15.706Z,6.10
2022-08-05T02:44:25.811Z,5.80
2022-08-05T02:49:40.375Z,6.13
2022-08-05T02:54:52.165Z,5.73
2022-08-05T02:59:55.619Z,6.13
2022-08-05T03:04:59.220Z,6.50
2022-08-05T03:10:02.123Z,6.57
2022-08-05T03:15:07.489Z,6.43
2022-08-05T03:20:13.410Z,6.10
2022-08-05T03:25:33.445Z,6.27
2022-08-05T03:30:41.269Z,5.97
2022-08-05T03:35:46.776Z,6.40
2022-08-05T03:40:49.881Z,5.93
2022-08-05T03:45:58.055Z,6.03
2022-08-05T03:52:37.938Z,6.40
2022-08-05T03:56:46.316Z,5.70
2022-08-05T04:01:51.166Z,5.87
2022-08-05T04:06:55.132Z,6.30
2022-08-05T04:11:59.214Z,6.10
2022-08-05T04:17:03.034Z,5.53
2022-08-05T04:22:11.312Z,6.17
2022-08-05T04:27:19.849Z,5.90
2022-08-05T04:32:37.736Z,7.17
2022-08-05T04:38:01.391Z,6.27
2022-08-05T04:43:04.560Z,7.20
2022-08-05T04:48:16.430Z,5.90
2022-08-05T04:53:33.545Z,6.03
2022-08-05T04:58:37.992Z,5.93
2022-08-05T05:03:42.341Z,5.73
2022-08-05T05:08:45.342Z,6.53
2022-08-05T05:13:52.781Z,5.40
2022-08-05T05:19:19.546Z,5.97
2022-08-05T05:24:21.812Z,5.97
2022-08-05T05:29:24.410Z,5.60
2022-08-05T05:34:46.877Z,5.13
2022-08-05T05:39:49.510Z,5.00
2022-08-05T05:44:52.059Z,5.17
2022-08-05T05:50:02.172Z,5.20
2022-08-05T05:55:13.615Z,4.63
2022-08-05T06:00:19.334Z,5.00
2022-08-05T06:05:22.273Z,4.67
2022-08-05T06:10:25.013Z,4.53
2022-08-05T06:16:29.109Z,4.87
2022-08-05T06:20:54.619Z,5.00
2022-08-05T06:26:13.405Z,4.30
2022-08-05T06:31:22.066Z,5.00
2022-08-05T06:36:25.833Z,4.67
2022-08-05T06:41:28.677Z,4.50
2022-08-05T06:46:37.751Z,4.53
2022-08-05T06:51:41.035Z,4.63
2022-08-05T06:56:55.127Z,18.93
2022-08-05T07:02:07.325Z,8.40
2022-08-05T07:07:09.921Z,11.60
2022-08-05T07:12:32.380Z,18.80
2022-08-05T07:17:58.539Z,7.87
2022-08-05T07:22:57.324Z,21.47
2022-08-05T07:28:04.252Z,22.13
2022-08-05T07:33:16.113Z,6.40
2022-08-05T07:38:32.036Z,9.80
2022-08-05T07:43:37.207Z,4.53
2022-08-05T07:49:01.586Z,4.83
2022-08-05T07:54:02.429Z,6.63
2022-08-05T07:59:05.015Z,5.70
2022-08-05T08:04:11.409Z,6.60
2022-08-05T08:09:14.286Z,6.10
2022-08-05T08:14:19.160Z,9.67
2022-08-05T08:20:22.669Z,6.23
2022-08-05T08:24:51.848Z,11.17
2022-08-05T08:30:05.096Z,7.77
2022-08-05T08:35:17.293Z,12.00
2022-08-05T08:40:21.966Z,8.93
2022-08-05T08:45:29.600Z,8.07
2022-08-05T08:51:03.411Z,6.87
2022-08-05T08:56:05.105Z,10.07
2022-08-05T09:01:15.602Z,12.93
2022-08-05T09:06:21.133Z,11.53
2022-08-05T09:11:50.910Z,7.70
2022-08-05T09:16:48.693Z,7.83
2022-08-05T09:22:22.998Z,7.10
2022-08-05T09:28:04.081Z,6.00
2022-08-05T09:33:02.383Z,13.57
2022-08-05T09:38:12.009Z,15.83
2022-08-05T09:43:40.820Z,11.73
2022-08-05T09:49:07.002Z,8.33
2022-08-05T09:54:09.290Z,10.95
2022-08-05T09:59:16.959Z,7.35
2022-08-05T10:04:29.203Z,10.18
2022-08-05T10:09:44.930Z,7.35
2022-08-05T10:14:48.435Z,11.50
2022-08-05T10:20:04.361Z,8.32
2022-08-05T10:25:14.217Z,11.93
2022-08-05T10:31:20.751Z,7.82
2022-08-05T10:35:40.684Z,7.05
2022-08-05T10:40:49.949Z,9.93
2022-08-05T10:46:23.748Z,10.02
2022-08-05T10:51:53.107Z,7.05
2022-08-05T10:57:03.057Z,6.32
2022-08-05T11:02:14.100Z,8.20
2022-08-05T11:07:19.063Z,8.63
2022-08-05T11:12:42.200Z,8.07
2022-08-05T11:17:59.519Z,4.82
2022-08-05T11:24:02.633Z,8.70
2022-08-05T11:29:13.838Z,4.82
2022-08-05T11:34:39.752Z,5.03
2022-08-05T11:39:55.596Z,4.45
2022-08-05T11:45:14.529Z,4.90
2022-08-05T11:50:37.428Z,4.57
2022-08-05T11:55:57.793Z,4.50
2022-08-05T12:01:10.683Z,4.50
2022-08-05T12:06:15.254Z,4.72
2022-08-05T12:11:40.392Z,4.43
2022-08-05T12:16:47.427Z,4.78
2022-08-05T12:21:50.979Z,4.53
2022-08-05T12:26:58.657Z,5.13
2022-08-05T12:32:02.092Z,4.47
2022-08-05T12:37:17.427Z,4.35
2022-08-05T12:42:25.386Z,4.20
2022-08-05T12:47:30.418Z,4.20
2022-08-05T12:52:41.668Z,4.50
2022-08-05T12:58:48.951Z,4.45
2022-08-05T13:03:08.557Z,4.40
2022-08-05T13:08:18.470Z,4.30
2022-08-05T13:14:06.783Z,4.97
2022-08-05T13:18:58.428Z,4.43
2022-08-05T13:24:01.669Z,3.78
2022-08-05T13:29:06.942Z,3.08
2022-08-05T13:34:22.157Z,3.25
2022-08-05T13:40:16.811Z,3.90
2022-08-05T13:44:55.130Z,3.58
2022-08-05T13:49:58.166Z,4.30
2022-08-05T13:55:01.207Z,3.40
2022-08-05T14:00:04.410Z,3.50
2022-08-05T14:05:12.038Z,3.60
2022-08-05T14:10:28.044Z,3.95
2022-08-05T14:16:09.179Z,3.80
2022-08-05T14:20:54.821Z,3.60
2022-08-05T14:25:58.477Z,3.97
2022-08-05T14:31:01.951Z,4.43
2022-08-05T14:36:05.164Z,3.65
2022-08-05T14:41:08.188Z,4.25
2022-08-05T14:46:11.145Z,4.22
2022-08-05T14:51:16.113Z,4.05
2022-08-05T14:56:22.619Z,3.70
2022-08-05T15:01:48.115Z,3.97
2022-08-05T15:06:49.766Z,3.75
2022-08-05T15:11:53.742Z,3.80
2022-08-05T15:16:56.260Z,3.90
2022-08-05T15:22:01.269Z,3.67
2022-08-05T15:27:04.201Z,3.90
2022-08-05T15:32:11.710Z,3.60
2022-08-05T15:38:32.905Z,3.35
2022-08-05T15:42:54.091Z,3.40
2022-08-05T15:47:59.184Z,3.58
2022-08-05T15:53:06.404Z,3.75
2022-08-05T15:58:16.698Z,3.50
2022-08-05T16:03:20.550Z,3.22
2022-08-05T16:08:24.041Z,3.28
2022-08-05T16:13:34.793Z,3.63
2022-08-05T16:18:51.872Z,4.15
2022-08-05T16:23:58.036Z,5.95
2022-08-05T16:29:04.133Z,7.47
2022-08-05T16:34:10.856Z,6.82
2022-08-05T16:39:13.888Z,7.47
2022-08-05T16:44:18.080Z,7.30
2022-08-05T16:49:24.122Z,7.80
2022-08-05T16:54:31.830Z,7.35
2022-08-05T16:59:35.455Z,6.53
2022-08-05T17:04:57.890Z,6.10
2022-08-05T17:10:00.427Z,5.85
2022-08-05T17:15:05.946Z,5.57
2022-08-05T17:20:14.679Z,5.00
2022-08-05T17:25:33.432Z,4.68
2022-08-05T17:30:42.394Z,4.87
2022-08-05T17:36:08.110Z,4.70
2022-08-05T17:42:16.814Z,4.23
2022-08-05T17:46:35.658Z,3.60
2022-08-05T17:51:40.393Z,3.77
2022-08-05T17:56:44.651Z,3.63
2022-08-05T18:01:51.455Z,3.83
2022-08-05T18:06:54.087Z,4.00
2022-08-05T18:12:02.945Z,4.40
2022-08-05T18:17:06.607Z,3.93
2022-08-05T18:22:46.018Z,4.67
2022-08-05T18:27:52.203Z,4.70
2022-08-05T18:33:00.325Z,4.50
2022-08-05T18:38:03.734Z,4.90
2022-08-05T18:43:08.889Z,4.47
2022-08-05T18:48:31.171Z,4.90
2022-08-05T18:53:43.124Z,4.67
2022-08-05T18:58:54.967Z,5.10
2022-08-05T19:04:05.341Z,5.13
2022-08-05T19:09:08.156Z,4.80
2022-08-05T19:14:38.104Z,5.27
2022-08-05T19:19:33.122Z,5.07
2022-08-05T19:24:37.140Z,4.83
2022-08-05T19:29:57.858Z,5.00
2022-08-05T19:35:00.617Z,5.27
2022-08-05T19:40:10.462Z,5.50
2022-08-05T19:45:14.550Z,5.20
2022-08-05T19:50:17.242Z,5.23
2022-08-05T19:56:14.202Z,5.20
2022-08-05T20:00:42.711Z,5.00
2022-08-05T20:05:51.360Z,5.40
2022-08-05T20:10:55.266Z,4.97
2022-08-05T20:15:58.016Z,10.50
2022-08-05T20:21:04.733Z,7.43
2022-08-05T20:26:07.974Z,6.00
2022-08-05T20:31:21.402Z,6.07
2022-08-05T20:36:25.936Z,6.23
2022-08-05T20:41:44.420Z,5.70
2022-08-05T20:46:48.185Z,5.53
2022-08-05T20:51:53.354Z,5.43
2022-08-05T20:56:57.323Z,5.67
2022-08-05T21:01:59.987Z,5.70
2022-08-05T21:07:02.664Z,5.70
2022-08-05T21:12:10.242Z,5.63
2022-08-05T21:17:14.270Z,5.70
2022-08-05T21:22:18.246Z,5.80
2022-08-05T21:27:25.000Z,5.93
2022-08-05T21:32:30.034Z,5.43
2022-08-05T21:37:35.007Z,5.40
2022-08-05T21:42:44.788Z,5.67
2022-08-05T21:47:56.172Z,5.77
2022-08-05T21:53:04.496Z,6.23
2022-08-05T21:58:11.693Z,5.37
2022-08-05T22:03:15.361Z,5.97
2022-08-05T22:08:24.011Z,5.70
2022-08-05T22:14:34.176Z,5.60
2022-08-05T22:18:49.384Z,5.37
2022-08-05T22:24:13.260Z,6.37
2022-08-05T22:29:33.205Z,6.20
2022-08-05T22:34:35.801Z,5.90
2022-08-05T22:39:39.031Z,6.43
2022-08-05T22:44:48.213Z,6.80
2022-08-05T22:50:20.932Z,6.03
2022-08-05T22:55:21.423Z,6.33
2022-08-05T23:00:24.378Z,5.90
2022-08-05T23:05:29.061Z,5.70
2022-08-05T23:10:38.633Z,5.53
2022-08-05T23:15:41.500Z,6.00
2022-08-05T23:20:45.492Z,5.53
2022-08-05T23:25:54.854Z,6.13
2022-08-05T23:31:16.247Z,6.50
2022-08-05T23:36:20.243Z,5.77
2022-08-05T23:41:22.827Z,5.80
2022-08-05T23:46:26.484Z,5.90
2022-08-05T23:51:54.007Z,5.87
2022-08-05T23:57:04.148Z,5.50
